Time;durP1;ratioP1;P1;durP2;ratioP2;P2;SDS_P1;SDS_P2;PMS_P1;PMS_P2;Temp;Humidity;BMP_temperature;BMP_pressure;BME280_temperature;BME280_humidity;BME280_pressure;Samples;Min_cycle;Max_cycle;Signal;HPM_P1;HPM_P2
2022/07/18 00:00:20;;;;;;;2.20;2.00;;;;;;;13.22;90.60;100183.48;1815769;76;21113;-81
2022/07/18 00:02:47;;;;;;;3.77;1.87;;;;;;;13.17;90.66;100187.52;1827320;78;21041;-81
2022/07/18 00:05:14;;;;;;;1.60;1.50;;;;;;;13.09;90.95;100192.86;1829194;78;21115;-77
2022/07/18 00:07:42;;;;;;;2.25;2.05;;;;;;;13.09;91.03;100184.86;1814353;76;21010;-78
2022/07/18 00:10:10;;;;;;;3.65;2.27;;;;;;;13.16;90.87;100183.16;1831750;78;21157;-76
2022/07/18 00:12:38;;;;;;;2.02;1.82;;;;;;;13.14;90.82;100181.17;1822447;76;20978;-77
2022/07/18 00:15:07;;;;;;;2.85;2.05;;;;;;;13.10;91.13;100184.38;1810204;76;21037;-79
2022/07/18 00:17:36;;;;;;;2.20;1.80;;;;;;;13.11;91.12;100177.51;1780162;78;21067;-76
2022/07/18 00:20:08;;;;;;;2.75;1.80;;;;;;;13.17;90.96;100180.84;1808663;76;21528;-77
2022/07/18 00:22:36;;;;;;;2.12;1.92;;;;;;;13.15;91.29;100180.19;1829810;76;21013;-78
2022/07/18 00:25:04;;;;;;;4.58;2.08;;;;;;;13.09;91.16;100172.03;1830070;78;21108;-80
2022/07/18 00:27:32;;;;;;;2.20;1.60;;;;;;;13.11;91.14;100180.69;1820881;76;21053;-78
2022/07/18 00:29:59;;;;;;;3.40;2.00;;;;;;;13.19;90.83;100180.64;1829018;77;21580;-78
2022/07/18 00:32:25;;;;;;;3.37;2.02;;;;;;;13.17;90.87;100183.51;1831868;76;21589;-79
2022/07/18 00:34:52;;;;;;;2.70;1.85;;;;;;;13.13;90.96;100187.53;1830653;76;21130;-78
2022/07/18 00:37:18;;;;;;;2.85;1.80;;;;;;;13.16;90.78;100188.50;1820539;76;21026;-80
2022/07/18 00:39:45;;;;;;;2.25;1.85;;;;;;;13.23;90.38;100186.46;1815275;76;21038;-80
2022/07/18 00:42:11;;;;;;;3.45;2.10;;;;;;;13.18;90.43;100185.16;1821499;76;21140;-80
2022/07/18 00:44:38;;;;;;;2.98;1.55;;;;;;;13.10;90.55;100185.20;1803374;77;21056;-80
2022/07/18 00:47:04;;;;;;;2.20;1.92;;;;;;;13.08;90.67;100192.55;1801881;76;21341;-78
2022/07/18 00:49:30;;;;;;;2.45;2.20;;;;;;;13.13;90.63;100192.02;1781690;78;21149;-77
2022/07/18 00:51:58;;;;;;;3.30;1.92;;;;;;;13.08;90.75;100195.72;1815556;77;21057;-80
2022/07/18 00:54:25;;;;;;;3.52;2.17;;;;;;;13.01;90.94;100192.91;1815449;77;21620;-78
2022/07/18 00:56:52;;;;;;;4.35;1.95;;;;;;;12.95;91.13;100198.42;1815684;78;21114;-80
2022/07/18 00:59:19;;;;;;;2.17;1.80;;;;;;;12.99;91.15;100198.91;1807514;77;21794;-81
2022/07/18 01:01:47;;;;;;;2.83;2.33;;;;;;;13.10;90.88;100197.20;1829284;76;21018;-81
2022/07/18 01:04:18;;;;;;;2.45;1.92;;;;;;;13.10;90.91;100208.38;1829787;77;21010;-79
2022/07/18 01:06:46;;;;;;;2.42;1.60;;;;;;;13.04;90.89;100203.72;1807591;76;21104;-79
2022/07/18 01:09:14;;;;;;;5.00;2.12;;;;;;;13.02;91.00;100203.05;1828138;78;21099;-78
2022/07/18 01:11:40;;;;;;;2.45;1.95;;;;;;;13.06;90.85;100198.56;1812598;76;21262;-80
2022/07/18 01:14:07;;;;;;;2.15;1.95;;;;;;;13.02;90.90;100200.39;1765619;80;21038;-76
2022/07/18 01:16:34;;;;;;;2.37;2.17;;;;;;;12.97;91.12;100202.25;1831632;78;21056;-77
2022/07/18 01:19:01;;;;;;;2.08;1.87;;;;;;;12.94;91.30;100206.58;1821085;76;21105;-78
2022/07/18 01:21:28;;;;;;;3.00;2.35;;;;;;;13.02;91.11;100203.05;1822316;76;21006;-78
2022/07/18 01:23:54;;;;;;;4.37;2.15;;;;;;;13.08;90.81;100205.88;1760435;79;21050;-76
2022/07/18 01:26:22;;;;;;;1.90;1.77;;;;;;;13.04;90.94;100209.91;1816081;79;21010;-79
2022/07/18 01:28:48;;;;;;;2.22;2.02;;;;;;;13.01;91.06;100208.91;1815731;77;21050;-77
2022/07/18 01:31:16;;;;;;;3.08;1.85;;;;;;;12.97;91.24;100211.59;1795293;77;21030;-80
2022/07/18 01:33:43;;;;;;;3.22;1.60;;;;;;;13.06;90.93;100208.41;1818586;78;21077;-78
2022/07/18 01:36:10;;;;;;;3.65;2.10;;;;;;;13.12;90.59;100210.37;1817907;77;21082;-79
2022/07/18 01:38:38;;;;;;;3.47;2.20;;;;;;;13.05;90.71;100213.39;1813744;77;21604;-78
2022/07/18 01:41:05;;;;;;;2.33;2.10;;;;;;;12.97;90.92;100212.41;1814127;77;21062;-78
2022/07/18 01:43:31;;;;;;;5.50;1.80;;;;;;;12.99;90.72;100215.73;1813727;77;21534;-77
2022/07/18 01:45:58;;;;;;;5.12;2.22;;;;;;;13.07;90.56;100209.54;1786252;79;21018;-78
2022/07/18 01:48:24;;;;;;;3.37;1.90;;;;;;;13.02;90.56;100214.58;1807754;77;21279;-77
2022/07/18 01:50:51;;;;;;;3.47;2.25;;;;;;;12.93;90.80;100214.27;1817300;77;21026;-78
2022/07/18 01:53:18;;;;;;;2.40;2.20;;;;;;;12.90;90.95;100212.80;1816786;77;21038;-78
2022/07/18 01:55:44;;;;;;;2.10;1.90;;;;;;;12.91;90.88;100213.61;1817723;77;21039;-77
2022/07/18 01:58:11;;;;;;;2.87;2.33;;;;;;;12.87;90.99;100218.45;1794362;77;21118;-79
2022/07/18 02:00:37;;;;;;;3.33;1.90;;;;;;;12.81;91.33;100215.14;1816318;77;21050;-81
2022/07/18 02:03:04;;;;;;;3.05;2.08;;;;;;;12.78;91.63;100223.47;1804338;77;21551;-81
2022/07/18 02:05:31;;;;;;;3.80;2.62;;;;;;;12.82;91.42;100234.63;1817230;78;21073;-79
2022/07/18 02:07:58;;;;;;;2.75;2.55;;;;;;;12.91;91.21;100245.11;1834671;77;21041;-80
2022/07/18 02:10:24;;;;;;;3.72;2.45;;;;;;;12.84;91.35;100248.62;1763212;79;21076;-81
2022/07/18 02:12:51;;;;;;;2.77;2.00;;;;;;;12.74;91.50;100240.30;1826107;76;21592;-78
2022/07/18 02:15:18;;;;;;;2.10;1.82;;;;;;;12.69;91.60;100240.48;1830912;78;21006;-79
2022/07/18 02:17:44;;;;;;;3.27;2.20;;;;;;;12.69;91.64;100239.15;1802051;78;21128;-79
2022/07/18 02:20:12;;;;;;;5.05;2.58;;;;;;;12.62;91.92;100238.19;1818147;76;21101;-76
2022/07/18 02:22:39;;;;;;;2.72;2.33;;;;;;;12.52;92.34;100229.04;1831906;76;21595;-77
2022/07/18 02:25:08;;;;;;;3.70;2.87;;;;;;;12.50;92.70;100235.04;1827089;76;21078;-77
2022/07/18 02:27:34;;;;;;;4.35;3.10;;;;;;;12.52;92.68;100235.19;1825146;76;21081;-78
2022/07/18 02:30:01;;;;;;;5.08;3.30;;;;;;;12.45;92.96;100236.86;1829528;78;21001;-80
2022/07/18 02:32:28;;;;;;;3.77;2.90;;;;;;;12.37;93.23;100238.20;1823410;76;21061;-80
2022/07/18 02:34:55;;;;;;;4.90;3.08;;;;;;;12.37;93.42;100240.36;1824587;76;21053;-80
2022/07/18 02:37:21;;;;;;;3.47;2.83;;;;;;;12.39;93.33;100241.53;1814279;76;21081;-80
2022/07/18 02:39:48;;;;;;;3.20;2.90;;;;;;;12.33;93.54;100235.04;1825200;76;21021;-77
2022/07/18 02:42:14;;;;;;;3.12;2.60;;;;;;;12.26;93.82;100239.87;1827022;76;21041;-80
2022/07/18 02:44:41;;;;;;;3.02;2.80;;;;;;;12.26;93.78;100242.02;1828982;78;21084;-81
2022/07/18 02:47:07;;;;;;;3.22;2.05;;;;;;;12.33;93.60;100245.70;1823287;76;21058;-78
2022/07/18 02:49:34;;;;;;;2.85;2.65;;;;;;;12.31;93.80;100238.38;1823610;78;21085;-78
2022/07/18 02:52:04;;;;;;;4.90;2.60;;;;;;;12.30;93.93;100238.02;1828352;76;21061;-79
2022/07/18 02:54:33;;;;;;;2.58;2.37;;;;;;;12.37;93.75;100236.87;1829568;76;21034;-80
2022/07/18 02:57:00;;;;;;;3.33;2.37;;;;;;;12.49;93.41;100236.84;1817919;76;21097;-79
2022/07/18 02:59:27;;;;;;;3.05;2.58;;;;;;;12.50;93.47;100237.20;1811719;76;21159;-78
2022/07/18 03:01:54;;;;;;;4.30;2.60;;;;;;;12.52;93.58;100234.38;1828294;76;21743;-79
2022/07/18 03:04:21;;;;;;;5.53;2.27;;;;;;;12.64;93.30;100243.66;1818261;77;21053;-79
2022/07/18 03:06:49;;;;;;;3.27;2.05;;;;;;;12.78;92.57;100250.95;1813589;77;21062;-79
2022/07/18 03:09:17;;;;;;;3.00;2.20;;;;;;;12.76;92.27;100249.47;1804769;77;21523;-79
2022/07/18 03:11:44;;;;;;;4.03;2.47;;;;;;;12.73;92.25;100261.83;1838322;77;21363;-78
2022/07/18 03:14:12;;;;;;;3.95;2.42;;;;;;;12.70;92.24;100254.98;1827639;78;21123;-77
2022/07/18 03:16:39;;;;;;;4.62;2.12;;;;;;;12.76;91.93;100262.80;1819487;77;20999;-77
2022/07/18 03:19:06;;;;;;;3.25;2.17;;;;;;;12.88;91.55;100262.77;1841361;77;21481;-76
2022/07/18 03:21:33;;;;;;;4.45;2.60;;;;;;;12.89;91.47;100267.63;1823686;78;21500;-79
2022/07/18 03:24:00;;;;;;;5.50;2.95;;;;;;;12.85;91.49;100274.30;1821180;77;21053;-79
2022/07/18 03:26:28;;;;;;;4.33;2.85;;;;;;;12.89;91.46;100282.28;1825926;77;21040;-80
2022/07/18 03:28:55;;;;;;;3.67;2.45;;;;;;;12.99;91.02;100282.92;1826179;77;21021;-84
2022/07/18 03:31:22;;;;;;;3.15;2.85;;;;;;;12.98;90.84;100280.77;1825145;77;21006;-84
2022/07/18 03:33:48;;;;;;;3.12;2.58;;;;;;;12.93;90.91;100288.43;1823133;77;21089;-85
2022/07/18 03:36:15;;;;;;;5.22;2.62;;;;;;;12.92;90.87;100279.27;1826056;78;21014;-81
2022/07/18 03:38:42;;;;;;;3.52;3.02;;;;;;;12.98;90.76;100278.60;1823362;77;21243;-81
2022/07/18 03:41:11;;;;;;;4.20;2.62;;;;;;;12.94;90.91;100280.78;1814403;77;21102;-79
2022/07/18 03:43:39;;;;;;;2.83;2.22;;;;;;;12.90;90.84;100286.12;1821651;77;21001;-80
2022/07/18 03:46:06;;;;;;;3.08;2.30;;;;;;;12.94;90.92;100289.25;1810384;77;21022;-80
2022/07/18 03:48:34;;;;;;;6.15;3.00;;;;;;;13.06;90.73;100293.75;1823293;77;21498;-79
2022/07/18 03:51:01;;;;;;;4.37;2.67;;;;;;;13.03;90.75;100291.41;1820059;77;21167;-80
2022/07/18 03:53:28;;;;;;;3.17;1.98;;;;;;;13.00;90.90;100291.27;1823432;77;22155;-79
2022/07/18 03:55:55;;;;;;;2.62;2.27;;;;;;;13.10;90.78;100294.56;1807063;77;21056;-81
2022/07/18 03:58:21;;;;;;;4.10;2.37;;;;;;;13.22;90.31;100283.53;1822020;77;21066;-80
2022/07/18 04:00:48;;;;;;;3.90;2.60;;;;;;;13.26;90.25;100285.67;1818597;77;21345;-79
2022/07/18 04:03:14;;;;;;;5.12;3.02;;;;;;;13.29;90.28;100284.48;1823368;77;21578;-82
2022/07/18 04:05:41;;;;;;;3.47;2.25;;;;;;;13.33;90.23;100284.02;1833043;77;20980;-80
2022/07/18 04:08:08;;;;;;;2.55;2.35;;;;;;;13.46;90.04;100276.80;1827822;76;20996;-79
2022/07/18 04:10:34;;;;;;;4.67;2.60;;;;;;;13.64;89.19;100281.88;1832770;78;21098;-79
2022/07/18 04:13:01;;;;;;;3.83;2.80;;;;;;;13.69;88.78;100284.01;1816970;76;21015;-80
2022/07/18 04:15:27;;;;;;;2.52;2.30;;;;;;;13.69;88.49;100273.33;1817577;78;21349;-82
2022/07/18 04:17:53;;;;;;;3.10;2.40;;;;;;;13.66;88.52;100280.38;1823554;76;20965;-80
2022/07/18 04:20:20;;;;;;;3.47;2.40;;;;;;;13.78;88.43;100281.63;1829603;76;21050;-79
2022/07/18 04:22:51;;;;;;;2.70;2.33;;;;;;;13.90;88.09;100277.54;1832347;78;21000;-78
2022/07/18 04:25:19;;;;;;;4.40;2.77;;;;;;;13.94;88.54;100276.69;1836776;77;20992;-78
2022/07/18 04:27:45;;;;;;;2.50;2.10;;;;;;;14.04;88.39;100284.47;1826921;76;21047;-78
2022/07/18 04:30:14;;;;;;;5.87;2.90;;;;;;;14.18;88.28;100278.85;1823129;76;21012;-81
2022/07/18 04:32:41;;;;;;;3.17;2.40;;;;;;;14.40;87.65;100279.88;1811720;76;21043;-79
2022/07/18 04:35:08;;;;;;;3.70;2.60;;;;;;;14.58;87.23;100283.58;1817672;76;20995;-81
2022/07/18 04:37:35;;;;;;;2.83;2.58;;;;;;;14.71;87.03;100285.13;1811375;78;21078;-84
2022/07/18 04:40:02;;;;;;;3.45;2.27;;;;;;;14.80;86.14;100287.23;1833684;76;21236;-83
2022/07/18 04:42:30;;;;;;;2.37;2.17;;;;;;;14.96;85.25;100281.70;1811601;76;21007;-86
2022/07/18 04:44:58;;;;;;;4.70;2.40;;;;;;;15.09;85.05;100289.10;1825729;76;21094;-82
2022/07/18 04:47:26;;;;;;;4.78;2.80;;;;;;;15.21;85.27;100285.45;1828135;76;21107;-83
2022/07/18 04:49:53;;;;;;;2.42;2.22;;;;;;;15.35;84.55;100293.97;1817648;77;21059;-80
2022/07/18 04:52:22;;;;;;;2.83;2.50;;;;;;;15.44;84.27;100286.69;1834205;78;21286;-82
2022/07/18 04:54:50;;;;;;;3.42;2.37;;;;;;;15.60;83.52;100287.80;1833477;77;21102;-80
2022/07/18 04:57:18;;;;;;;3.05;2.47;;;;;;;15.74;82.25;100279.44;1823088;77;20968;-79
2022/07/18 04:59:45;;;;;;;3.47;2.42;;;;;;;15.75;82.14;100284.30;1834435;77;21570;-82
2022/07/18 05:02:12;;;;;;;2.85;2.52;;;;;;;15.73;81.71;100289.84;1824008;76;21468;-81
2022/07/18 05:04:39;;;;;;;5.35;2.52;;;;;;;15.73;82.06;100288.50;1826430;76;21549;-81
2022/07/18 05:07:10;;;;;;;3.72;2.35;;;;;;;15.83;81.58;100286.34;1818236;76;21552;-82
2022/07/18 05:09:35;;;;;;;4.72;2.40;;;;;;;15.99;80.99;100286.61;1826091;76;21038;-79
2022/07/18 05:12:03;;;;;;;2.85;2.22;;;;;;;16.01;80.93;100292.64;1834227;76;21033;-80
2022/07/18 05:14:30;;;;;;;3.50;2.70;;;;;;;16.01;81.10;100286.43;1839921;76;21014;-82
2022/07/18 05:16:58;;;;;;;4.20;2.80;;;;;;;16.05;80.58;100282.34;1833453;78;20990;-82
2022/07/18 05:19:24;;;;;;;6.45;2.30;;;;;;;16.07;80.18;100282.98;1828901;76;21049;-78
2022/07/18 05:21:51;;;;;;;3.12;2.30;;;;;;;16.19;80.05;100286.01;1823253;76;21013;-79
2022/07/18 05:24:18;;;;;;;2.83;2.50;;;;;;;16.32;79.79;100282.08;1819581;76;21061;-79
2022/07/18 05:26:45;;;;;;;2.92;2.30;;;;;;;16.41;79.62;100284.95;1829361;76;20986;-78
2022/07/18 05:29:15;;;;;;;4.97;2.25;;;;;;;16.48;79.58;100285.03;1824355;76;21119;-79
2022/07/18 05:31:41;;;;;;;5.17;3.17;;;;;;;16.56;79.81;100278.18;1836402;76;21041;-81
2022/07/18 05:34:08;;;;;;;3.60;2.00;;;;;;;16.64;78.50;100284.73;1826324;76;21498;-82
2022/07/18 05:36:36;;;;;;;6.15;2.90;;;;;;;16.71;78.26;100286.97;1839832;77;21095;-81
2022/07/18 05:39:02;;;;;;;2.30;2.10;;;;;;;16.81;78.37;100285.28;1839208;77;21035;-83
2022/07/18 05:41:29;;;;;;;4.25;2.50;;;;;;;16.85;78.02;100289.26;1838857;77;22074;-81
2022/07/18 05:43:56;;;;;;;3.55;2.75;;;;;;;16.87;77.42;100284.52;1835793;76;21109;-79
2022/07/18 05:46:23;;;;;;;3.95;2.55;;;;;;;16.89;77.66;100291.04;1829478;76;21497;-81
2022/07/18 05:48:51;;;;;;;5.80;3.22;;;;;;;16.92;77.77;100287.98;1829726;77;21111;-81
2022/07/18 05:51:18;;;;;;;4.03;2.15;;;;;;;16.99;77.87;100294.20;1836457;77;21013;-80
2022/07/18 05:53:45;;;;;;;3.33;2.22;;;;;;;17.14;76.94;100285.22;1850439;77;21088;-79
2022/07/18 05:56:11;;;;;;;3.65;2.20;;;;;;;17.28;76.39;100288.27;1846882;77;21023;-79
2022/07/18 05:58:38;;;;;;;4.72;2.87;;;;;;;17.35;76.19;100285.12;1834432;77;21034;-79
2022/07/18 06:01:05;;;;;;;6.10;2.80;;;;;;;17.38;75.71;100287.91;1840992;76;21100;-80
2022/07/18 06:03:31;;;;;;;4.08;2.50;;;;;;;17.37;75.70;100290.30;1843313;77;21010;-82
2022/07/18 06:06:00;;;;;;;4.17;3.00;;;;;;;17.38;76.02;100294.10;1841696;76;21256;-81
2022/07/18 06:08:26;;;;;;;3.52;2.47;;;;;;;17.45;76.13;100289.59;1824631;76;21075;-78
2022/07/18 06:10:53;;;;;;;4.33;2.50;;;;;;;17.61;75.44;100284.91;1817924;76;21047;-81
2022/07/18 06:13:19;;;;;;;5.60;2.70;;;;;;;17.68;75.34;100284.43;1827056;78;21066;-80
2022/07/18 06:15:46;;;;;;;3.05;2.60;;;;;;;17.66;75.47;100287.31;1810921;78;21011;-81
2022/07/18 06:18:13;;;;;;;6.97;3.85;;;;;;;17.62;75.27;100290.61;1810368;76;21366;-81
2022/07/18 06:20:40;;;;;;;3.62;2.67;;;;;;;17.55;75.52;100289.75;1834115;78;21127;-76
2022/07/18 06:23:07;;;;;;;4.15;2.87;;;;;;;17.52;75.79;100287.45;1837173;76;21030;-80
2022/07/18 06:25:34;;;;;;;3.35;2.52;;;;;;;17.63;75.63;100292.25;1806390;76;21003;-78
2022/07/18 06:28:01;;;;;;;6.83;2.52;;;;;;;17.77;74.59;100295.31;1800491;77;21007;-78
2022/07/18 06:30:27;;;;;;;3.05;2.22;;;;;;;17.77;74.29;100289.09;1815960;76;21078;-81
2022/07/18 06:32:54;;;;;;;3.58;2.70;;;;;;;17.77;74.80;100298.50;1811698;76;21043;-80
2022/07/18 06:35:39;;;;;;;4.15;2.70;;;;;;;17.74;74.54;100293.55;1825002;78;21098;-82
2022/07/18 06:38:07;;;;;;;4.12;2.62;;;;;;;17.65;74.99;100289.70;1812781;76;21027;-80
2022/07/18 06:40:34;;;;;;;5.25;2.47;;;;;;;17.66;75.50;100295.38;1823494;76;21112;-77
2022/07/18 06:43:01;;;;;;;5.55;3.22;;;;;;;17.75;74.86;100287.97;1817521;76;21392;-83
2022/07/18 06:45:27;;;;;;;5.60;2.62;;;;;;;17.73;75.09;100294.06;1813970;76;21487;-81
2022/07/18 06:47:54;;;;;;;4.12;2.72;;;;;;;17.69;74.82;100279.35;1810868;76;21059;-86
2022/07/18 06:50:20;;;;;;;5.37;3.08;;;;;;;17.71;75.46;100284.00;1821119;76;21074;-85
2022/07/18 06:52:46;;;;;;;3.52;2.90;;;;;;;17.78;75.48;100282.70;1809593;76;21501;-81
2022/07/18 06:55:13;;;;;;;3.67;2.50;;;;;;;17.84;74.92;100280.58;1813947;76;21072;-83
2022/07/18 06:57:43;;;;;;;4.50;2.60;;;;;;;17.91;74.93;100287.33;1814103;77;21027;-82
2022/07/18 07:00:13;;;;;;;3.25;2.52;;;;;;;18.06;74.82;100275.36;1813682;76;21062;-82
2022/07/18 07:02:46;;;;;;;5.80;2.50;;;;;;;18.15;74.41;100269.26;1814434;76;21066;-79
2022/07/18 07:05:14;;;;;;;4.45;2.45;;;;;;;18.30;73.90;100279.83;1817753;76;21021;-82
2022/07/18 07:07:43;;;;;;;3.15;2.58;;;;;;;18.40;73.08;100276.20;1827443;76;22707;-81
2022/07/18 07:10:10;;;;;;;4.05;3.00;;;;;;;18.49;72.97;100280.88;1828116;76;21049;-80
2022/07/18 07:12:41;;;;;;;4.05;2.40;;;;;;;18.59;73.00;100279.12;1838425;76;21026;-83
2022/07/18 07:15:08;;;;;;;4.00;2.40;;;;;;;18.69;72.37;100279.52;1836614;76;21003;-85
2022/07/18 07:17:36;;;;;;;3.12;2.55;;;;;;;18.76;72.28;100277.66;1836326;76;21096;-79
2022/07/18 07:20:05;;;;;;;3.37;2.20;;;;;;;18.86;71.81;100273.23;1835622;76;21125;-80
2022/07/18 07:22:41;;;;;;;2.92;1.82;;;;;;;18.99;70.62;100279.94;1834489;76;21001;-82
2022/07/18 07:25:08;;;;;;;1.92;1.82;;;;;;;19.11;68.69;100277.95;1803822;76;21100;-81
2022/07/18 07:27:36;;;;;;;2.95;2.47;;;;;;;19.19;68.34;100272.32;1795575;78;21087;-84
2022/07/18 07:30:03;;;;;;;3.60;2.17;;;;;;;19.28;67.52;100282.33;1818081;77;21120;-85
2022/07/18 07:32:40;;;;;;;3.17;2.10;;;;;;;19.32;67.20;100276.32;1818661;77;21151;-84
2022/07/18 07:35:10;;;;;;;2.27;2.08;;;;;;;19.39;67.07;100278.48;1816486;77;21660;-75
2022/07/18 07:37:39;;;;;;;2.30;2.10;;;;;;;19.49;66.28;100278.03;1820600;77;21056;-75
2022/07/18 07:40:07;;;;;;;3.12;2.10;;;;;;;19.60;65.87;100273.81;1788474;78;21048;-72
2022/07/18 07:42:33;;;;;;;2.15;1.95;;;;;;;19.71;65.62;100276.38;1818363;77;22230;-75
2022/07/18 07:45:00;;;;;;;3.52;2.33;;;;;;;19.82;66.05;100277.89;1822486;77;21219;-77
2022/07/18 07:47:28;;;;;;;3.05;2.40;;;;;;;19.92;65.72;100282.00;1815520;77;21077;-75
2022/07/18 07:49:56;;;;;;;4.60;2.85;;;;;;;20.00;65.56;100283.08;1814540;77;21136;-75
2022/07/18 07:52:23;;;;;;;4.12;2.08;;;;;;;20.08;64.35;100283.34;1817023;77;21002;-75
2022/07/18 07:54:51;;;;;;;4.22;2.30;;;;;;;20.10;63.58;100273.16;1816613;77;21990;-74
2022/07/18 07:57:18;;;;;;;2.25;1.98;;;;;;;20.16;64.33;100279.84;1813518;77;21041;-73
2022/07/18 07:59:44;;;;;;;2.10;1.70;;;;;;;20.30;64.07;100275.20;1807433;77;21499;-76
2022/07/18 08:02:11;;;;;;;2.50;2.25;;;;;;;20.43;62.81;100279.66;1810506;77;21493;-77
2022/07/18 08:04:37;;;;;;;3.83;2.30;;;;;;;20.49;62.10;100276.61;1808291;77;21084;-75
2022/07/18 08:07:04;;;;;;;2.00;1.90;;;;;;;20.48;62.29;100276.31;1824610;76;21041;-77
2022/07/18 08:09:31;;;;;;;2.08;1.57;;;;;;;20.49;62.28;100280.66;1817882;76;21290;-75
2022/07/18 08:11:59;;;;;;;2.22;1.75;;;;;;;20.56;61.72;100281.43;1816835;76;21056;-78
2022/07/18 08:14:26;;;;;;;2.17;1.95;;;;;;;20.65;61.64;100273.89;1832198;77;21591;-75
2022/07/18 08:16:53;;;;;;;2.08;1.87;;;;;;;20.75;61.75;100268.84;1815129;76;21034;-76
2022/07/18 08:19:21;;;;;;;2.85;1.67;;;;;;;20.87;60.57;100275.15;1830174;76;21037;-76
2022/07/18 08:21:48;;;;;;;1.95;1.77;;;;;;;20.92;60.58;100273.12;1758826;76;21791;-78
2022/07/18 08:24:16;;;;;;;1.82;1.60;;;;;;;21.00;60.60;100272.85;1808968;76;21330;-79
2022/07/18 08:26:44;;;;;;;2.08;1.75;;;;;;;21.13;60.31;100273.22;1815533;76;21104;-78
2022/07/18 08:29:11;;;;;;;1.60;1.50;;;;;;;21.28;59.99;100270.14;1817441;76;21155;-76
2022/07/18 08:31:37;;;;;;;1.60;1.50;;;;;;;21.43;58.23;100269.23;1817851;76;21092;-80
2022/07/18 08:34:04;;;;;;;1.67;1.57;;;;;;;21.53;57.98;100271.43;1820964;76;21238;-77
2022/07/18 08:36:31;;;;;;;1.50;1.40;;;;;;;21.62;57.69;100268.72;1828950;77;21006;-74
2022/07/18 08:38:58;;;;;;;2.30;1.80;;;;;;;21.73;57.35;100265.25;1815541;76;21544;-75
2022/07/18 08:41:24;;;;;;;1.92;1.57;;;;;;;21.84;56.59;100270.92;1818865;76;21639;-77
2022/07/18 08:43:51;;;;;;;2.95;1.80;;;;;;;21.89;56.51;100273.23;1815729;76;21490;-77
2022/07/18 08:46:21;;;;;;;3.17;1.65;;;;;;;21.94;56.38;100273.38;1816327;76;21911;-79
2022/07/18 08:48:49;;;;;;;1.77;1.52;;;;;;;21.97;56.87;100276.14;1821124;76;21069;-77
2022/07/18 08:51:15;;;;;;;1.45;1.35;;;;;;;21.99;55.88;100276.73;1812822;76;21116;-76
2022/07/18 08:53:42;;;;;;;4.95;1.60;;;;;;;22.02;56.05;100280.34;1806081;76;21225;-77
2022/07/18 08:56:09;;;;;;;2.45;1.60;;;;;;;22.10;55.66;100275.95;1812191;76;21022;-77
2022/07/18 08:58:36;;;;;;;2.37;1.32;;;;;;;22.20;54.82;100271.33;1816784;76;21295;-76
2022/07/18 09:01:02;;;;;;;3.80;1.40;;;;;;;22.28;54.86;100268.31;1819283;76;21085;-74
2022/07/18 09:03:29;;;;;;;1.95;1.40;;;;;;;22.37;54.53;100270.16;1814932;76;21100;-76
2022/07/18 09:06:23;;;;;;;2.95;1.30;;;;;;;22.45;55.07;100266.29;1656487;84;21154;-76
2022/07/18 09:09:01;;;;;;;2.37;1.30;;;;;;;22.56;54.46;100264.95;1664007;84;21113;-77
2022/07/18 09:11:27;;;;;;;4.80;1.67;;;;;;;22.66;53.91;100263.00;1684835;83;21824;-76
2022/07/18 09:13:54;;;;;;;1.85;1.25;;;;;;;22.84;53.96;100256.63;1659810;84;21605;-77
2022/07/18 09:16:21;;;;;;;1.52;1.20;;;;;;;23.04;54.05;100248.15;1669488;84;21621;-78
2022/07/18 09:18:48;;;;;;;2.92;1.40;;;;;;;23.19;51.78;100257.69;1679619;84;21046;-75
2022/07/18 09:21:21;;;;;;;1.50;1.40;;;;;;;23.16;52.28;100254.93;1673522;83;21036;-76
2022/07/18 09:23:49;;;;;;;1.17;1.12;;;;;;;23.20;52.46;100258.81;1661656;84;21345;-79
2022/07/18 09:26:40;;;;;;;2.02;1.20;;;;;;;23.41;52.38;100262.77;1662848;84;21058;-76
2022/07/18 09:29:07;;;;;;;1.22;1.20;;;;;;;23.64;51.52;100263.73;1663400;84;21111;-75
2022/07/18 09:31:34;;;;;;;2.20;1.55;;;;;;;23.89;50.46;100254.77;1669057;84;21110;-76
2022/07/18 09:34:02;;;;;;;1.22;1.17;;;;;;;24.09;50.14;100256.19;1664927;84;21110;-78
2022/07/18 09:36:33;;;;;;;2.20;1.20;;;;;;;24.45;49.47;100255.41;1663309;84;21212;-82
2022/07/18 09:38:58;;;;;;;2.58;1.60;;;;;;;24.88;47.98;100255.28;1670411;84;21110;-83
2022/07/18 09:41:30;;;;;;;2.95;1.30;;;;;;;25.11;47.96;100263.72;1672490;84;21094;-83
2022/07/18 09:43:56;;;;;;;1.12;1.12;;;;;;;25.26;47.94;100261.23;1671233;84;21145;-82
2022/07/18 09:46:23;;;;;;;2.52;1.50;;;;;;;25.33;47.05;100262.96;1657821;84;21605;-83
2022/07/18 09:49:07;;;;;;;2.20;1.30;;;;;;;25.45;46.71;100257.66;1671715;85;21840;-81
2022/07/18 09:51:33;;;;;;;2.70;1.30;;;;;;;25.67;47.20;100255.44;1612532;88;21606;-81
2022/07/18 09:54:02;;;;;;;2.22;1.50;;;;;;;26.28;46.26;100249.80;1630918;86;21565;-83
2022/07/18 09:56:29;;;;;;;1.55;1.45;;;;;;;26.99;45.50;100240.48;1625742;86;21073;-83
2022/07/18 09:58:56;;;;;;;1.80;1.70;;;;;;;27.55;43.47;100244.01;1559105;89;21109;-82
2022/07/18 10:01:23;;;;;;;2.58;1.60;;;;;;;27.82;42.72;100251.98;1600884;88;21252;-80
2022/07/18 10:03:50;;;;;;;2.20;1.52;;;;;;;27.62;42.51;100250.01;1590458;89;21553;-81
2022/07/18 10:06:18;;;;;;;1.35;1.25;;;;;;;27.17;43.23;100257.73;1628268;87;21114;-81
2022/07/18 10:08:45;;;;;;;2.12;1.30;;;;;;;26.92;43.69;100251.61;1661472;86;21112;-80
2022/07/18 10:11:13;;;;;;;3.05;1.30;;;;;;;27.15;44.41;100255.82;1667109;85;21060;-81
2022/07/18 10:13:42;;;;;;;2.55;1.60;;;;;;;27.75;44.04;100252.78;1664656;86;21053;-80
2022/07/18 10:16:10;;;;;;;2.62;1.40;;;;;;;28.35;42.21;100250.39;1639213;86;21071;-81
2022/07/18 10:18:39;;;;;;;1.32;1.30;;;;;;;28.55;41.54;100242.22;1661804;86;21058;-82
2022/07/18 10:21:09;;;;;;;1.50;1.40;;;;;;;28.62;41.33;100246.02;1626675;86;20979;-82
2022/07/18 10:23:47;;;;;;;1.40;1.30;;;;;;;28.37;40.31;100248.20;1669903;85;21022;-81
2022/07/18 10:26:23;;;;;;;1.45;1.30;;;;;;;27.63;40.69;100251.11;1668713;85;21084;-81
2022/07/18 10:29:01;;;;;;;1.35;1.25;;;;;;;26.90;41.50;100251.61;1642519;86;22053;-81
2022/07/18 10:31:30;;;;;;;1.50;1.40;;;;;;;26.20;42.26;100250.28;1644244;86;21014;-80
2022/07/18 10:34:11;;;;;;;1.50;1.40;;;;;;;25.96;43.57;100251.98;1662466;86;21359;-74
2022/07/18 10:36:40;;;;;;;1.40;1.30;;;;;;;25.99;43.69;100248.73;1662582;84;21093;-78
2022/07/18 10:39:14;;;;;;;1.20;1.10;;;;;;;26.14;43.82;100247.23;1666308;86;21906;-75
2022/07/18 10:41:49;;;;;;;1.40;1.37;;;;;;;26.18;43.58;100245.64;1662065;86;21105;-80
2022/07/18 10:44:30;;;;;;;1.62;1.50;;;;;;;26.10;43.91;100248.30;1663575;84;21553;-79
2022/07/18 10:47:12;;;;;;;1.98;1.17;;;;;;;25.98;44.20;100248.98;1661317;86;21086;-81
2022/07/18 10:49:58;;;;;;;2.47;1.20;;;;;;;25.89;44.54;100248.06;1663961;85;21688;-78
2022/07/18 10:52:36;;;;;;;1.90;1.30;;;;;;;25.94;44.78;100247.86;1664918;86;21146;-80
2022/07/18 10:55:16;;;;;;;1.70;1.60;;;;;;;26.12;44.88;100245.31;1663650;86;21134;-78
2022/07/18 10:57:41;;;;;;;1.20;1.10;;;;;;;26.37;44.66;100243.34;1664739;86;21085;-81
2022/07/18 11:00:11;;;;;;;1.30;1.20;;;;;;;26.54;44.06;100230.91;1660828;86;21097;-75
2022/07/18 11:02:47;;;;;;;1.62;1.52;;;;;;;26.66;43.79;100234.31;1658142;84;21093;-77
2022/07/18 11:05:28;;;;;;;3.33;1.65;;;;;;;26.88;42.98;100236.87;1654993;86;21312;-79
2022/07/18 11:08:13;;;;;;;3.20;1.50;;;;;;;27.11;42.74;100233.45;1653559;84;21237;-76
2022/07/18 11:11:01;;;;;;;2.00;1.40;;;;;;;27.58;42.22;100233.38;1654230;85;21117;-77
2022/07/18 11:13:40;;;;;;;1.27;1.17;;;;;;;28.23;41.34;100224.72;1656790;85;21038;-76
2022/07/18 11:16:23;;;;;;;1.22;1.12;;;;;;;28.91;39.37;100224.90;1653429;86;21025;-79
2022/07/18 11:22:01;;;;;;;1.30;1.20;;;;;;;30.44;36.60;100210.83;1889893;74;22654;-80
2022/07/18 11:24:29;;;;;;;2.15;1.50;;;;;;;30.21;37.06;100223.37;1861954;75;21093;-79
2022/07/18 11:26:55;;;;;;;1.40;1.30;;;;;;;29.73;39.29;100220.46;1860497;75;21106;-80
2022/07/18 11:29:22;;;;;;;1.57;1.47;;;;;;;29.35;42.90;100229.12;1856673;76;21066;-75
2022/07/18 11:31:57;;;;;;;1.75;1.40;;;;;;;29.63;42.52;100224.58;1860759;75;20999;-80